KHMT/HMT METAR and TAF weather

Enter ICAO airport designator
Station Type Date Time Source
KHMT METAR 2022/11/26 09:55 UTC NOAA

KHMT 260955Z AUTO 00000KT 10SM CLR 05/M04 A3017 RMK AO2 T00461039


Station Type Date Time Source
KHMT Decoded METAR 2022/11/26 09:55 UTC NOAA

Station name not available
Nov 26, 2022 - 04:55 AM EST / 2022.11.26 0955 UTC
Wind: Calm:0
Visibility: 10 mile(s):0
Sky conditions: clear
Temperature: 40.3 F (4.6 C)
Dew Point: 25.0 F (-3.9 C)
Relative Humidity: 54%
Pressure (altimeter): 30.17 in. Hg (1021 hPa)
ob: KHMT 260955Z AUTO 00000KT 10SM CLR 05/M04 A3017 RMK AO2 T00461039
cycle: 10

Station Type Date Time Source
KHMT TAF UTC NOAA

Error!

Example: see airport list